createdAt,value
2018-07-21T00:02:27.629Z,25.28
2018-07-21T00:04:55.453Z,25.29
2018-07-21T00:07:23.501Z,25.36
2018-07-21T00:09:51.362Z,25.16
2018-07-21T00:12:19.153Z,25.20
2018-07-21T00:14:46.924Z,25.30
2018-07-21T00:17:14.717Z,25.22
2018-07-21T00:19:42.886Z,25.20
2018-07-21T00:22:10.714Z,25.15
2018-07-21T00:24:38.501Z,25.31
2018-07-21T00:27:06.267Z,25.22
2018-07-21T00:29:34.034Z,25.29
2018-07-21T00:32:01.817Z,25.35
2018-07-21T00:34:29.601Z,25.44
2018-07-21T00:36:57.386Z,25.33
2018-07-21T00:39:25.149Z,25.24
2018-07-21T00:41:52.934Z,25.18
2018-07-21T00:44:20.717Z,25.29
2018-07-21T00:46:48.566Z,25.34
2018-07-21T00:49:16.389Z,25.42
2018-07-21T00:51:44.196Z,25.27
2018-07-21T00:54:11.975Z,25.13
2018-07-21T00:56:39.751Z,25.01
2018-07-21T00:59:08.456Z,24.97
2018-07-21T01:01:36.208Z,24.89
2018-07-21T01:04:04.067Z,24.79
2018-07-21T01:06:31.845Z,24.79
2018-07-21T01:08:59.620Z,24.75
2018-07-21T01:11:27.491Z,24.60
2018-07-21T01:13:55.263Z,24.58
2018-07-21T01:16:23.124Z,24.65
2018-07-21T01:18:50.911Z,24.69
2018-07-21T01:21:18.741Z,24.64
2018-07-21T01:23:46.534Z,24.44
2018-07-21T01:26:14.370Z,24.46
2018-07-21T01:28:42.152Z,24.54
2018-07-21T01:31:10.031Z,24.51
2018-07-21T01:33:37.786Z,24.42
2018-07-21T01:36:05.709Z,24.47
2018-07-21T01:38:33.518Z,24.41
2018-07-21T01:41:01.315Z,24.47
2018-07-21T01:43:29.071Z,24.48
2018-07-21T01:45:56.813Z,24.44
2018-07-21T01:48:24.657Z,24.36
2018-07-21T01:50:52.450Z,24.42
2018-07-21T01:53:20.222Z,24.45
2018-07-21T01:55:48.007Z,24.37
2018-07-21T01:58:15.800Z,24.25
2018-07-21T02:00:43.638Z,24.42
2018-07-21T02:03:11.412Z,24.35
2018-07-21T02:05:39.178Z,24.16
2018-07-21T02:08:06.994Z,24.15
2018-07-21T02:10:35.049Z,24.27
2018-07-21T02:13:02.861Z,24.21
2018-07-21T02:15:30.630Z,24.31
2018-07-21T02:17:58.586Z,24.69
2018-07-21T02:20:26.353Z,24.69
2018-07-21T02:22:54.179Z,25.21
2018-07-21T02:25:22.048Z,25.07
2018-07-21T02:27:49.839Z,25.19
2018-07-21T02:30:17.646Z,25.46
2018-07-21T02:32:45.457Z,25.24
2018-07-21T02:35:13.286Z,25.47
2018-07-21T02:37:41.139Z,25.47
2018-07-21T02:40:08.975Z,25.38
2018-07-21T02:42:36.753Z,25.50
2018-07-21T02:45:04.851Z,25.35
2018-07-21T02:47:32.666Z,25.30
2018-07-21T02:50:00.469Z,25.19
2018-07-21T02:52:28.311Z,25.38
2018-07-21T02:54:56.085Z,25.13
2018-07-21T02:57:23.861Z,25.45
2018-07-21T02:59:51.630Z,25.31
2018-07-21T03:02:19.473Z,25.34
2018-07-21T03:04:47.297Z,25.43
2018-07-21T03:07:15.085Z,25.48
2018-07-21T03:09:42.869Z,25.43
2018-07-21T03:12:10.654Z,25.87
2018-07-21T03:14:38.513Z,26.48
2018-07-21T03:17:06.343Z,26.85
2018-07-21T03:19:34.258Z,27.01
2018-07-21T03:22:02.116Z,27.22
2018-07-21T03:24:29.937Z,27.94
2018-07-21T03:26:57.719Z,27.49
2018-07-21T03:29:25.598Z,28.04
2018-07-21T03:31:53.934Z,28.49
2018-07-21T03:34:21.702Z,28.48
2018-07-21T03:36:49.529Z,28.98
2018-07-21T03:39:17.686Z,29.15
2018-07-21T03:41:45.495Z,29.64
2018-07-21T03:44:13.325Z,29.18
2018-07-21T03:46:41.186Z,29.94
2018-07-21T03:49:09.055Z,30.79
2018-07-21T03:51:36.841Z,30.38
2018-07-21T03:54:04.639Z,30.89
2018-07-21T03:56:32.474Z,31.63
2018-07-21T03:59:00.258Z,32.33
2018-07-21T04:01:28.098Z,33.79
2018-07-21T04:03:55.891Z,34.45
2018-07-21T04:06:23.696Z,31.82
2018-07-21T04:08:51.549Z,32.65
2018-07-21T04:11:19.414Z,33.93
2018-07-21T04:13:47.287Z,36.96
2018-07-21T04:16:15.160Z,35.19
2018-07-21T04:18:42.927Z,35.09
2018-07-21T04:21:10.686Z,34.94
2018-07-21T04:23:38.461Z,36.02
2018-07-21T04:26:06.542Z,36.47
2018-07-21T04:28:34.398Z,35.00
2018-07-21T04:31:02.171Z,34.26
2018-07-21T04:33:29.937Z,33.61
2018-07-21T04:35:57.702Z,34.39
2018-07-21T04:38:25.561Z,36.46
2018-07-21T04:40:53.369Z,37.68
2018-07-21T04:43:21.131Z,36.97
2018-07-21T04:45:48.893Z,35.39
2018-07-21T04:48:16.683Z,36.70
2018-07-21T04:50:44.481Z,37.68
2018-07-21T04:53:12.249Z,36.77
2018-07-21T04:55:40.013Z,35.35
2018-07-21T04:58:07.802Z,35.07
2018-07-21T05:00:35.606Z,34.18
2018-07-21T05:03:03.447Z,35.46
2018-07-21T05:05:31.245Z,36.43
2018-07-21T05:07:59.034Z,36.96
2018-07-21T05:10:26.819Z,34.50
2018-07-21T05:12:54.679Z,35.06
2018-07-21T05:15:22.509Z,34.58
2018-07-21T05:17:50.289Z,33.61
2018-07-21T05:20:18.118Z,34.36
2018-07-21T05:22:45.939Z,35.52
2018-07-21T05:25:13.739Z,34.93
2018-07-21T05:27:41.553Z,32.78
2018-07-21T05:30:09.402Z,30.48
2018-07-21T05:32:37.303Z,31.09
2018-07-21T05:35:05.313Z,31.97
2018-07-21T05:37:33.127Z,31.55
2018-07-21T05:40:00.926Z,34.41
2018-07-21T05:42:28.750Z,35.54
2018-07-21T05:44:56.520Z,36.96
2018-07-21T05:47:24.294Z,34.76
2018-07-21T05:49:52.101Z,35.74
2018-07-21T05:52:19.902Z,36.58
2018-07-21T05:54:47.755Z,33.74
2018-07-21T05:57:15.749Z,34.93
2018-07-21T05:59:43.529Z,32.26
2018-07-21T06:02:11.397Z,31.31
2018-07-21T06:04:39.246Z,30.14
2018-07-21T06:07:07.022Z,30.05
2018-07-21T06:09:34.786Z,33.86
2018-07-21T06:12:02.613Z,34.83
2018-07-21T06:14:30.381Z,35.27
2018-07-21T06:16:58.179Z,34.79
2018-07-21T06:19:25.984Z,35.63
2018-07-21T06:21:53.754Z,35.37
2018-07-21T06:24:21.569Z,35.72
2018-07-21T06:26:49.320Z,37.05
2018-07-21T06:29:17.114Z,37.24
2018-07-21T06:31:44.954Z,37.37
2018-07-21T06:34:12.756Z,37.35
2018-07-21T06:36:40.598Z,36.94
2018-07-21T06:39:10.188Z,37.15
2018-07-21T06:41:38.006Z,36.99
2018-07-21T06:44:05.923Z,35.76
2018-07-21T06:46:33.762Z,36.67
2018-07-21T06:49:01.611Z,36.51
2018-07-21T06:51:29.435Z,35.58
2018-07-21T06:53:57.278Z,36.62
2018-07-21T06:56:25.083Z,36.10
2018-07-21T06:58:52.909Z,37.19
2018-07-21T07:01:20.789Z,36.61
2018-07-21T07:03:48.609Z,35.61
2018-07-21T07:06:16.750Z,36.00
2018-07-21T07:08:44.535Z,37.24
2018-07-21T07:11:12.459Z,35.83
2018-07-21T07:13:40.298Z,36.85
2018-07-21T07:16:08.110Z,38.42
2018-07-21T07:18:35.897Z,37.08
2018-07-21T07:21:03.814Z,37.74
2018-07-21T07:23:31.631Z,37.96
2018-07-21T07:25:59.484Z,37.15
2018-07-21T07:28:27.282Z,36.70
2018-07-21T07:30:55.123Z,36.20
2018-07-21T07:33:22.954Z,37.04
2018-07-21T07:35:50.763Z,37.95
2018-07-21T07:38:18.623Z,35.56
2018-07-21T07:40:46.416Z,34.14
2018-07-21T07:43:14.206Z,33.48
2018-07-21T07:45:42.011Z,34.60
2018-07-21T07:48:09.793Z,34.86
2018-07-21T07:50:37.625Z,35.92
2018-07-21T07:53:05.445Z,35.13
2018-07-21T07:55:34.036Z,33.79
2018-07-21T07:58:03.354Z,35.14
2018-07-21T08:00:31.270Z,35.74
2018-07-21T08:02:59.898Z,35.85
2018-07-21T08:05:27.697Z,34.16
2018-07-21T08:07:55.494Z,33.03
2018-07-21T08:10:23.303Z,34.79
2018-07-21T08:12:51.651Z,35.05
2018-07-21T08:15:20.077Z,35.24
2018-07-21T08:17:48.335Z,35.82
2018-07-21T08:20:16.305Z,35.75
2018-07-21T08:22:44.074Z,35.69
2018-07-21T08:25:11.842Z,34.63
2018-07-21T08:27:39.691Z,35.41
2018-07-21T08:30:08.790Z,35.19
2018-07-21T08:32:36.610Z,33.54
2018-07-21T08:35:04.500Z,33.89
2018-07-21T08:37:32.541Z,35.20
2018-07-21T08:40:00.333Z,35.48
2018-07-21T08:42:28.403Z,35.78
2018-07-21T08:44:56.270Z,34.52
2018-07-21T08:47:24.165Z,34.59
2018-07-21T08:49:51.959Z,34.01
2018-07-21T08:52:19.814Z,34.23
2018-07-21T08:54:47.593Z,34.88
2018-07-21T08:57:15.688Z,34.35
2018-07-21T08:59:43.552Z,33.15
2018-07-21T09:02:11.486Z,32.77
2018-07-21T09:04:39.442Z,33.73
2018-07-21T09:07:07.245Z,32.57
2018-07-21T09:09:35.070Z,32.68
2018-07-21T09:12:02.886Z,33.51
2018-07-21T09:14:30.681Z,32.39
2018-07-21T09:16:58.570Z,32.72
2018-07-21T09:19:26.735Z,33.09
2018-07-21T09:21:54.735Z,32.80
2018-07-21T09:24:22.541Z,33.77
2018-07-21T09:26:50.313Z,34.03
2018-07-21T09:29:18.249Z,34.50
2018-07-21T09:31:46.180Z,34.76
2018-07-21T09:34:14.041Z,35.00
2018-07-21T09:36:41.844Z,34.93
2018-07-21T09:39:10.418Z,34.38
2018-07-21T09:41:38.296Z,33.40
2018-07-21T09:44:06.143Z,33.04
2018-07-21T09:46:33.956Z,33.27
2018-07-21T09:49:01.771Z,33.10
2018-07-21T09:51:29.587Z,33.99
2018-07-21T09:53:57.465Z,34.31
2018-07-21T09:56:25.287Z,33.83
2018-07-21T09:58:53.133Z,34.33
2018-07-21T10:01:20.971Z,34.45
2018-07-21T10:03:48.760Z,34.36
2018-07-21T10:06:16.600Z,35.06
2018-07-21T10:08:44.451Z,35.79
2018-07-21T10:11:12.319Z,33.91
2018-07-21T10:13:40.220Z,33.30
2018-07-21T10:16:08.036Z,34.05
2018-07-21T10:18:35.825Z,35.21
2018-07-21T10:21:03.678Z,35.22
2018-07-21T10:23:31.863Z,34.79
2018-07-21T10:26:05.250Z,34.44
2018-07-21T10:28:38.549Z,33.89
2018-07-21T10:31:06.386Z,34.16
2018-07-21T10:33:34.187Z,34.72
2018-07-21T10:36:02.069Z,35.60
2018-07-21T10:38:29.841Z,35.52
2018-07-21T10:40:57.647Z,34.76
2018-07-21T10:43:25.499Z,35.46
2018-07-21T10:45:53.326Z,34.73
2018-07-21T10:48:21.120Z,35.31
2018-07-21T10:50:49.004Z,36.08
2018-07-21T10:53:16.807Z,36.15
2018-07-21T10:55:44.641Z,36.10
2018-07-21T10:58:12.441Z,36.80
2018-07-21T11:00:40.314Z,36.07
2018-07-21T11:05:44.066Z,35.04
2018-07-21T11:08:12.022Z,35.21
2018-07-21T11:10:39.788Z,35.53
2018-07-21T11:13:07.609Z,35.54
2018-07-21T11:15:36.627Z,35.84
2018-07-21T11:18:04.439Z,35.59
2018-07-21T11:20:32.302Z,35.70
2018-07-21T11:23:00.118Z,35.76
2018-07-21T11:25:27.915Z,34.65
2018-07-21T11:27:55.739Z,33.98
2018-07-21T11:30:23.529Z,34.85
2018-07-21T11:32:51.349Z,36.02
2018-07-21T11:35:19.199Z,35.64
2018-07-21T11:37:46.989Z,36.28
2018-07-21T11:40:14.806Z,36.21
2018-07-21T11:42:42.602Z,35.85
2018-07-21T11:45:10.437Z,35.25
2018-07-21T11:47:38.235Z,35.63
2018-07-21T11:50:06.083Z,34.58
2018-07-21T11:52:33.886Z,35.85
2018-07-21T11:55:01.702Z,36.54
2018-07-21T11:57:29.477Z,36.68
2018-07-21T11:59:57.259Z,36.19
2018-07-21T12:02:25.110Z,35.16
2018-07-21T12:04:52.910Z,35.26
2018-07-21T12:07:20.769Z,35.39
2018-07-21T12:09:48.633Z,35.58
2018-07-21T12:12:16.402Z,36.24
2018-07-21T12:14:44.238Z,36.28
2018-07-21T12:17:12.047Z,37.35
2018-07-21T12:19:40.116Z,37.13
2018-07-21T12:22:07.954Z,36.77
2018-07-21T12:24:35.828Z,36.75
2018-07-21T12:27:03.918Z,36.26
2018-07-21T12:29:31.735Z,35.86
2018-07-21T12:31:59.537Z,36.04
2018-07-21T12:34:27.372Z,36.12
2018-07-21T12:36:55.188Z,36.97
2018-07-21T12:39:22.981Z,36.60
2018-07-21T12:41:50.815Z,36.53
2018-07-21T12:44:18.621Z,35.87
2018-07-21T12:46:46.458Z,36.45
2018-07-21T12:49:14.245Z,36.37
2018-07-21T12:51:42.036Z,36.67
2018-07-21T12:54:09.927Z,35.69
2018-07-21T12:56:37.721Z,36.12
2018-07-21T12:59:05.586Z,35.25
2018-07-21T13:01:33.377Z,35.91
2018-07-21T13:04:01.191Z,35.72
2018-07-21T13:06:29.066Z,35.79
2018-07-21T13:08:56.914Z,36.21
2018-07-21T13:11:24.742Z,35.21
2018-07-21T13:13:52.531Z,35.30
2018-07-21T13:16:20.346Z,36.01
2018-07-21T13:18:48.130Z,35.87
2018-07-21T13:21:15.987Z,35.81
2018-07-21T13:23:43.851Z,35.29
2018-07-21T13:26:11.690Z,35.54
2018-07-21T13:28:39.522Z,35.97
2018-07-21T13:31:07.353Z,36.02
2018-07-21T13:33:35.155Z,35.51
2018-07-21T13:36:03.391Z,35.62
2018-07-21T13:38:31.202Z,34.94
2018-07-21T13:40:59.034Z,34.96
2018-07-21T13:43:26.923Z,35.35
2018-07-21T13:45:54.802Z,36.05
2018-07-21T13:48:22.644Z,36.00
2018-07-21T13:50:50.524Z,36.31
2018-07-21T13:53:18.380Z,36.13
2018-07-21T13:55:46.209Z,35.63
2018-07-21T13:58:14.005Z,35.97
2018-07-21T14:00:41.828Z,36.18
2018-07-21T14:03:09.613Z,36.02
2018-07-21T14:05:37.454Z,35.56
2018-07-21T14:08:05.380Z,36.16
2018-07-21T14:10:33.339Z,36.20
2018-07-21T14:13:01.363Z,35.84
2018-07-21T14:15:29.206Z,36.55
2018-07-21T14:17:57.019Z,36.44
2018-07-21T14:20:25.141Z,36.90
2018-07-21T14:22:52.960Z,37.13
2018-07-21T14:25:20.767Z,36.36
2018-07-21T14:27:48.658Z,36.50
2018-07-21T14:30:16.505Z,36.25
2018-07-21T14:32:44.329Z,36.04
2018-07-21T14:35:12.273Z,36.47
2018-07-21T14:37:40.062Z,35.98
2018-07-21T14:40:07.902Z,35.85
2018-07-21T14:42:35.759Z,35.81
2018-07-21T14:45:03.663Z,36.28
2018-07-21T14:47:31.532Z,36.71
2018-07-21T14:49:59.335Z,36.58
2018-07-21T14:52:27.167Z,36.47
2018-07-21T14:54:55.030Z,36.04
2018-07-21T14:57:22.804Z,35.53
2018-07-21T14:59:50.611Z,35.63
2018-07-21T15:02:18.431Z,36.18
2018-07-21T15:04:46.284Z,36.42
2018-07-21T15:07:14.121Z,36.31
2018-07-21T15:09:41.990Z,35.11
2018-07-21T15:12:09.814Z,35.00
2018-07-21T15:14:37.643Z,34.66
2018-07-21T15:17:05.754Z,34.66
2018-07-21T15:19:33.546Z,34.89
2018-07-21T15:22:01.365Z,34.85
2018-07-21T15:24:29.167Z,34.51
2018-07-21T15:26:56.953Z,35.19
2018-07-21T15:29:24.740Z,35.07
2018-07-21T15:31:52.617Z,35.03
2018-07-21T15:34:20.425Z,34.66
2018-07-21T15:36:48.197Z,35.27
2018-07-21T15:39:15.973Z,35.24
2018-07-21T15:41:43.769Z,35.94
2018-07-21T15:44:11.584Z,35.79
2018-07-21T15:46:39.408Z,35.68
2018-07-21T15:49:07.268Z,34.78
2018-07-21T15:51:35.052Z,34.63
2018-07-21T15:54:02.909Z,35.17
2018-07-21T15:56:30.688Z,35.87
2018-07-21T15:58:58.482Z,36.19
2018-07-21T16:01:26.460Z,34.97
2018-07-21T16:03:54.498Z,34.92
2018-07-21T16:06:22.290Z,34.86
2018-07-21T16:08:50.099Z,34.70
2018-07-21T16:11:17.889Z,35.03
2018-07-21T16:13:45.797Z,34.63
2018-07-21T16:16:13.989Z,34.33
2018-07-21T16:18:41.810Z,34.62
2018-07-21T16:21:09.631Z,34.50
2018-07-21T16:23:37.507Z,33.77
2018-07-21T16:26:05.601Z,33.63
2018-07-21T16:28:33.387Z,33.33
2018-07-21T16:31:01.174Z,33.31
2018-07-21T16:33:29.059Z,32.95
2018-07-21T16:35:56.863Z,33.30
2018-07-21T16:38:24.670Z,33.22
2018-07-21T16:40:52.459Z,32.86
2018-07-21T16:43:20.231Z,32.76
2018-07-21T16:45:48.247Z,32.62
2018-07-21T16:48:16.058Z,32.55
2018-07-21T16:50:43.853Z,32.75
2018-07-21T16:53:11.644Z,32.62
2018-07-21T16:55:39.410Z,32.30
2018-07-21T16:58:07.205Z,32.31
2018-07-21T17:00:34.991Z,32.10
2018-07-21T17:03:02.809Z,31.85
2018-07-21T17:05:30.914Z,31.62
2018-07-21T17:07:58.734Z,31.39
2018-07-21T17:10:26.521Z,31.34
2018-07-21T17:12:54.343Z,31.55
2018-07-21T17:15:22.129Z,31.26
2018-07-21T17:17:50.216Z,31.28
2018-07-21T17:20:18.357Z,31.20
2018-07-21T17:22:46.165Z,31.19
2018-07-21T17:25:14.098Z,31.07
2018-07-21T17:27:41.928Z,30.97
2018-07-21T17:30:09.737Z,30.87
2018-07-21T17:32:37.620Z,30.67
2018-07-21T17:35:05.452Z,30.64
2018-07-21T17:37:33.342Z,30.66
2018-07-21T17:40:01.160Z,30.80
2018-07-21T17:42:28.952Z,30.61
2018-07-21T17:44:57.258Z,30.66
2018-07-21T17:47:25.154Z,30.43
2018-07-21T17:49:52.974Z,30.72
2018-07-21T17:52:20.848Z,30.43
2018-07-21T17:54:48.687Z,30.44
2018-07-21T17:57:16.484Z,30.42
2018-07-21T17:59:44.293Z,30.37
2018-07-21T18:02:12.194Z,30.34
2018-07-21T18:04:40.080Z,30.34
2018-07-21T18:07:07.912Z,30.30
2018-07-21T18:09:35.730Z,30.33
2018-07-21T18:12:03.614Z,30.31
2018-07-21T18:14:31.509Z,30.23
2018-07-21T18:16:59.611Z,30.04
2018-07-21T18:19:27.409Z,29.74
2018-07-21T18:21:55.244Z,29.61
2018-07-21T18:24:23.074Z,29.62
2018-07-21T18:26:50.969Z,29.54
2018-07-21T18:29:18.776Z,29.49
2018-07-21T18:31:46.665Z,29.49
2018-07-21T18:34:14.410Z,29.53
2018-07-21T18:36:42.240Z,29.55
2018-07-21T18:39:11.173Z,29.51
2018-07-21T18:41:39.207Z,29.56
2018-07-21T18:44:07.390Z,29.52
2018-07-21T18:46:35.268Z,29.34
2018-07-21T18:49:03.163Z,29.29
2018-07-21T18:51:31.048Z,29.22
2018-07-21T18:53:58.865Z,29.09
2018-07-21T18:56:26.716Z,28.69
2018-07-21T18:58:54.563Z,28.31
2018-07-21T19:01:22.370Z,28.15
2018-07-21T19:03:50.257Z,28.08
2018-07-21T19:06:18.162Z,28.19
2018-07-21T19:08:51.414Z,28.21
2018-07-21T19:11:19.280Z,28.24
2018-07-21T19:13:47.104Z,28.34
2018-07-21T19:16:20.473Z,28.32
2018-07-21T19:18:48.505Z,28.13
2018-07-21T19:21:16.594Z,28.01
2018-07-21T19:23:44.530Z,28.11
2018-07-21T19:26:17.856Z,27.89
2018-07-21T19:28:45.785Z,27.28
2018-07-21T19:31:13.660Z,26.99
2018-07-21T19:33:41.485Z,26.93
2018-07-21T19:36:09.355Z,26.86
2018-07-21T19:38:37.209Z,26.85
2018-07-21T19:41:10.643Z,26.95
2018-07-21T19:43:38.822Z,26.99
2018-07-21T19:46:06.654Z,27.10
2018-07-21T19:48:34.510Z,27.38
2018-07-21T19:51:02.471Z,27.55
2018-07-21T19:53:30.344Z,27.53
2018-07-21T19:55:58.181Z,27.57
2018-07-21T19:58:26.004Z,27.37
2018-07-21T20:00:53.820Z,26.97
2018-07-21T20:03:21.894Z,26.90
2018-07-21T20:05:49.761Z,26.83
2018-07-21T20:08:17.641Z,26.99
2018-07-21T20:10:45.421Z,27.14
2018-07-21T20:13:13.221Z,27.19
2018-07-21T20:15:41.050Z,27.26
2018-07-21T20:18:08.971Z,27.34
2018-07-21T20:20:36.768Z,27.31
2018-07-21T20:23:04.689Z,27.17
2018-07-21T20:25:32.588Z,27.19
2018-07-21T20:28:00.392Z,27.25
2018-07-21T20:30:28.223Z,27.29
2018-07-21T20:32:56.030Z,27.12
2018-07-21T20:35:23.849Z,27.14
2018-07-21T20:37:51.646Z,27.25
2018-07-21T20:40:19.459Z,27.19
2018-07-21T20:42:47.271Z,27.27
2018-07-21T20:45:15.114Z,27.09
2018-07-21T20:47:42.902Z,27.20
2018-07-21T20:50:10.740Z,27.00
2018-07-21T20:52:38.525Z,27.08
2018-07-21T20:55:06.414Z,27.00
2018-07-21T20:57:34.194Z,27.04
2018-07-21T21:00:02.066Z,26.99
2018-07-21T21:02:29.868Z,26.86
2018-07-21T21:04:57.767Z,26.93
2018-07-21T21:07:25.575Z,26.98
2018-07-21T21:09:53.350Z,27.11
2018-07-21T21:12:21.276Z,27.09
2018-07-21T21:14:49.305Z,27.18
2018-07-21T21:17:17.831Z,27.05
2018-07-21T21:19:45.614Z,27.03
2018-07-21T21:22:13.532Z,26.89
2018-07-21T21:24:41.327Z,26.92
2018-07-21T21:27:09.506Z,26.86
2018-07-21T21:29:37.368Z,26.66
2018-07-21T21:32:05.131Z,26.76
2018-07-21T21:34:32.920Z,26.77
2018-07-21T21:37:00.718Z,26.50
2018-07-21T21:39:28.498Z,26.54
2018-07-21T21:41:56.333Z,26.31
2018-07-21T21:44:24.061Z,26.35
2018-07-21T21:46:51.857Z,26.21
2018-07-21T21:49:19.625Z,26.22
2018-07-21T21:51:47.378Z,26.24
2018-07-21T21:54:15.165Z,26.29
2018-07-21T21:56:42.971Z,26.28
2018-07-21T21:59:10.776Z,26.23
2018-07-21T22:01:38.576Z,26.16
2018-07-21T22:04:06.400Z,25.98
2018-07-21T22:06:34.165Z,26.15
2018-07-21T22:09:01.989Z,26.20
2018-07-21T22:11:29.775Z,25.94
2018-07-21T22:13:57.582Z,26.05
2018-07-21T22:16:25.446Z,25.99
2018-07-21T22:18:53.277Z,26.20
2018-07-21T22:21:21.150Z,26.03
2018-07-21T22:23:48.902Z,26.11
2018-07-21T22:26:16.665Z,25.97
2018-07-21T22:28:44.462Z,25.96
2018-07-21T22:31:12.233Z,26.06
2018-07-21T22:33:40.002Z,25.95
2018-07-21T22:36:07.786Z,26.05
2018-07-21T22:38:35.541Z,26.18
2018-07-21T22:41:03.377Z,26.00
2018-07-21T22:43:36.588Z,26.07
2018-07-21T22:46:04.653Z,26.04
2018-07-21T22:48:32.408Z,25.91
2018-07-21T22:51:00.190Z,25.80
2018-07-21T22:53:27.974Z,25.82
2018-07-21T22:55:56.056Z,25.73
2018-07-21T22:58:23.930Z,25.39
2018-07-21T23:00:51.893Z,25.63
2018-07-21T23:03:19.672Z,25.60
2018-07-21T23:05:47.433Z,25.66
2018-07-21T23:08:15.254Z,25.65
2018-07-21T23:10:43.026Z,25.76
2018-07-21T23:13:10.885Z,25.59
2018-07-21T23:15:38.666Z,25.61
2018-07-21T23:18:06.421Z,25.50
2018-07-21T23:20:34.209Z,25.58
2018-07-21T23:23:01.978Z,25.48
2018-07-21T23:25:29.763Z,25.41
2018-07-21T23:27:57.588Z,25.48
2018-07-21T23:30:25.350Z,25.51
2018-07-21T23:32:53.114Z,25.74
2018-07-21T23:35:20.909Z,25.55
2018-07-21T23:37:48.715Z,25.58
2018-07-21T23:40:16.485Z,25.37
2018-07-21T23:42:44.268Z,25.44
2018-07-21T23:45:12.053Z,25.42
2018-07-21T23:47:39.852Z,25.31
2018-07-21T23:50:07.896Z,25.40
2018-07-21T23:52:35.693Z,25.37
2018-07-21T23:55:04.446Z,25.25
2018-07-21T23:57:32.233Z,25.01
